sensor_id;sensor_type;location;lat;lon;timestamp;P1;durP1;ratioP1;P2;durP2;ratioP2
39654;SDS011;25336;59.944;11.010;2024-03-23T00:53:49;3.13;;;1.35;;
39654;SDS011;25336;59.944;11.010;2024-03-23T00:56:15;5.97;;;1.40;;
39654;SDS011;25336;59.944;11.010;2024-03-23T00:58:40;8.98;;;1.90;;
39654;SDS011;25336;59.944;11.010;2024-03-23T01:01:06;6.75;;;1.77;;
39654;SDS011;25336;59.944;11.010;2024-03-23T01:03:32;6.13;;;1.88;;
39654;SDS011;25336;59.944;11.010;2024-03-23T01:06:01;5.28;;;1.20;;
39654;SDS011;25336;59.944;11.010;2024-03-23T01:08:27;4.00;;;1.23;;
39654;SDS011;25336;59.944;11.010;2024-03-23T01:10:57;4.90;;;1.52;;
39654;SDS011;25336;59.944;11.010;2024-03-23T01:13:23;4.80;;;1.42;;
39654;SDS011;25336;59.944;11.010;2024-03-23T01:15:50;4.40;;;1.38;;
39654;SDS011;25336;59.944;11.010;2024-03-23T01:18:17;3.15;;;2.08;;
39654;SDS011;25336;59.944;11.010;2024-03-23T01:20:44;3.53;;;1.55;;
39654;SDS011;25336;59.944;11.010;2024-03-23T01:23:10;4.15;;;1.50;;
39654;SDS011;25336;59.944;11.010;2024-03-23T01:25:39;4.82;;;1.58;;
39654;SDS011;25336;59.944;11.010;2024-03-23T01:28:05;5.57;;;1.42;;
39654;SDS011;25336;59.944;11.010;2024-03-23T01:30:34;7.22;;;1.58;;
39654;SDS011;25336;59.944;11.010;2024-03-23T01:33:00;6.95;;;2.08;;
39654;SDS011;25336;59.944;11.010;2024-03-23T01:35:26;5.40;;;1.65;;
39654;SDS011;25336;59.944;11.010;2024-03-23T01:37:52;6.90;;;2.22;;
39654;SDS011;25336;59.944;11.010;2024-03-23T01:40:19;4.85;;;1.58;;
39654;SDS011;25336;59.944;11.010;2024-03-23T01:43:04;7.38;;;1.88;;
39654;SDS011;25336;59.944;11.010;2024-03-23T01:45:32;5.57;;;1.70;;
39654;SDS011;25336;59.944;11.010;2024-03-23T01:47:59;3.80;;;1.48;;
39654;SDS011;25336;59.944;11.010;2024-03-23T01:50:25;7.88;;;2.03;;
39654;SDS011;25336;59.944;11.010;2024-03-23T01:52:51;8.55;;;1.48;;
39654;SDS011;25336;59.944;11.010;2024-03-23T01:55:17;10.65;;;1.75;;
39654;SDS011;25336;59.944;11.010;2024-03-23T01:57:43;5.82;;;1.45;;
39654;SDS011;25336;59.944;11.010;2024-03-23T02:00:10;6.82;;;2.17;;
39654;SDS011;25336;59.944;11.010;2024-03-23T02:02:46;8.10;;;1.75;;
39654;SDS011;25336;59.944;11.010;2024-03-23T02:05:12;7.28;;;2.00;;
39654;SDS011;25336;59.944;11.010;2024-03-23T02:07:41;6.00;;;1.63;;
39654;SDS011;25336;59.944;11.010;2024-03-23T02:10:08;6.32;;;1.52;;
39654;SDS011;25336;59.944;11.010;2024-03-23T02:12:35;6.68;;;2.10;;
39654;SDS011;25336;59.944;11.010;2024-03-23T02:15:02;5.10;;;2.20;;
39654;SDS011;25336;59.944;11.010;2024-03-23T02:17:29;5.57;;;1.70;;
39654;SDS011;25336;59.944;11.010;2024-03-23T02:19:56;6.60;;;1.67;;
39654;SDS011;25336;59.944;11.010;2024-03-23T02:22:21;8.90;;;2.20;;
39654;SDS011;25336;59.944;11.010;2024-03-23T02:24:47;8.20;;;2.72;;
39654;SDS011;25336;59.944;11.010;2024-03-23T02:27:13;9.10;;;1.92;;
39654;SDS011;25336;59.944;11.010;2024-03-23T02:29:39;6.75;;;1.90;;
39654;SDS011;25336;59.944;11.010;2024-03-23T02:32:04;8.50;;;2.78;;
39654;SDS011;25336;59.944;11.010;2024-03-23T02:34:30;7.57;;;2.25;;
39654;SDS011;25336;59.944;11.010;2024-03-23T02:36:56;8.80;;;2.38;;
39654;SDS011;25336;59.944;11.010;2024-03-23T02:39:22;9.50;;;2.30;;
39654;SDS011;25336;59.944;11.010;2024-03-23T02:41:48;9.88;;;1.88;;
39654;SDS011;25336;59.944;11.010;2024-03-23T02:44:13;7.90;;;1.95;;
39654;SDS011;25336;59.944;11.010;2024-03-23T02:46:39;8.45;;;1.88;;
39654;SDS011;25336;59.944;11.010;2024-03-23T02:49:05;6.65;;;2.58;;
39654;SDS011;25336;59.944;11.010;2024-03-23T02:51:32;6.20;;;1.83;;
39654;SDS011;25336;59.944;11.010;2024-03-23T02:53:57;5.57;;;2.22;;
39654;SDS011;25336;59.944;11.010;2024-03-23T02:56:23;11.60;;;3.45;;
39654;SDS011;25336;59.944;11.010;2024-03-23T02:58:49;9.02;;;1.80;;
39654;SDS011;25336;59.944;11.010;2024-03-23T03:01:14;9.30;;;2.00;;
39654;SDS011;25336;59.944;11.010;2024-03-23T03:03:42;7.63;;;2.25;;
39654;SDS011;25336;59.944;11.010;2024-03-23T03:06:09;10.98;;;2.30;;
39654;SDS011;25336;59.944;11.010;2024-03-23T03:08:34;9.23;;;2.83;;
39654;SDS011;25336;59.944;11.010;2024-03-23T03:11:00;11.85;;;2.15;;
39654;SDS011;25336;59.944;11.010;2024-03-23T03:13:26;5.70;;;1.77;;
39654;SDS011;25336;59.944;11.010;2024-03-23T03:15:54;7.43;;;2.25;;
39654;SDS011;25336;59.944;11.010;2024-03-23T03:18:20;10.60;;;2.05;;
39654;SDS011;25336;59.944;11.010;2024-03-23T03:20:46;5.15;;;1.85;;
39654;SDS011;25336;59.944;11.010;2024-03-23T03:23:11;9.82;;;2.08;;
39654;SDS011;25336;59.944;11.010;2024-03-23T03:25:37;7.68;;;1.98;;
39654;SDS011;25336;59.944;11.010;2024-03-23T03:28:03;7.50;;;1.90;;
39654;SDS011;25336;59.944;11.010;2024-03-23T03:30:29;4.82;;;1.75;;
39654;SDS011;25336;59.944;11.010;2024-03-23T03:32:54;5.30;;;1.90;;
39654;SDS011;25336;59.944;11.010;2024-03-23T03:35:20;9.48;;;2.13;;
39654;SDS011;25336;59.944;11.010;2024-03-23T03:37:46;5.22;;;1.83;;
39654;SDS011;25336;59.944;11.010;2024-03-23T03:40:12;10.40;;;2.15;;
39654;SDS011;25336;59.944;11.010;2024-03-23T03:42:41;5.93;;;2.15;;
39654;SDS011;25336;59.944;11.010;2024-03-23T03:45:07;10.13;;;2.40;;
39654;SDS011;25336;59.944;11.010;2024-03-23T03:47:32;9.82;;;2.08;;
39654;SDS011;25336;59.944;11.010;2024-03-23T03:49:58;12.30;;;2.67;;
39654;SDS011;25336;59.944;11.010;2024-03-23T03:52:24;9.98;;;2.10;;
39654;SDS011;25336;59.944;11.010;2024-03-23T03:54:49;9.50;;;2.20;;
39654;SDS011;25336;59.944;11.010;2024-03-23T03:57:15;6.00;;;1.73;;
39654;SDS011;25336;59.944;11.010;2024-03-23T03:59:42;8.63;;;2.25;;
39654;SDS011;25336;59.944;11.010;2024-03-23T04:02:08;9.57;;;1.77;;
39654;SDS011;25336;59.944;11.010;2024-03-23T04:04:33;4.82;;;1.77;;
39654;SDS011;25336;59.944;11.010;2024-03-23T04:07:00;5.57;;;1.67;;
39654;SDS011;25336;59.944;11.010;2024-03-23T04:09:26;4.70;;;2.30;;
39654;SDS011;25336;59.944;11.010;2024-03-23T04:11:52;5.82;;;1.90;;
39654;SDS011;25336;59.944;11.010;2024-03-23T04:14:17;9.77;;;2.33;;
39654;SDS011;25336;59.944;11.010;2024-03-23T04:16:43;10.43;;;2.50;;
39654;SDS011;25336;59.944;11.010;2024-03-23T04:19:09;11.02;;;2.50;;
39654;SDS011;25336;59.944;11.010;2024-03-23T04:21:35;5.70;;;2.10;;
39654;SDS011;25336;59.944;11.010;2024-03-23T04:24:02;8.77;;;2.38;;
39654;SDS011;25336;59.944;11.010;2024-03-23T04:26:28;9.63;;;2.58;;
39654;SDS011;25336;59.944;11.010;2024-03-23T04:28:54;10.88;;;2.80;;
39654;SDS011;25336;59.944;11.010;2024-03-23T04:31:19;10.27;;;2.55;;
39654;SDS011;25336;59.944;11.010;2024-03-23T04:33:46;10.05;;;2.63;;
39654;SDS011;25336;59.944;11.010;2024-03-23T04:36:12;12.77;;;2.63;;
39654;SDS011;25336;59.944;11.010;2024-03-23T04:38:37;11.90;;;2.38;;
39654;SDS011;25336;59.944;11.010;2024-03-23T04:41:03;14.20;;;2.20;;
39654;SDS011;25336;59.944;11.010;2024-03-23T04:43:29;7.28;;;2.28;;
39654;SDS011;25336;59.944;11.010;2024-03-23T04:45:54;9.10;;;2.47;;
39654;SDS011;25336;59.944;11.010;2024-03-23T04:48:20;9.55;;;2.05;;
39654;SDS011;25336;59.944;11.010;2024-03-23T04:50:49;12.57;;;2.72;;
39654;SDS011;25336;59.944;11.010;2024-03-23T04:53:20;14.30;;;2.60;;
39654;SDS011;25336;59.944;11.010;2024-03-23T04:55:46;10.60;;;2.92;;
39654;SDS011;25336;59.944;11.010;2024-03-23T04:58:13;7.95;;;2.70;;
39654;SDS011;25336;59.944;11.010;2024-03-23T05:00:38;9.73;;;2.33;;
39654;SDS011;25336;59.944;11.010;2024-03-23T05:03:04;9.75;;;2.20;;
39654;SDS011;25336;59.944;11.010;2024-03-23T05:05:30;8.75;;;2.33;;
39654;SDS011;25336;59.944;11.010;2024-03-23T05:07:55;9.43;;;2.35;;
39654;SDS011;25336;59.944;11.010;2024-03-23T05:10:21;13.63;;;2.97;;
39654;SDS011;25336;59.944;11.010;2024-03-23T05:12:47;16.85;;;3.60;;
39654;SDS011;25336;59.944;11.010;2024-03-23T05:15:12;15.70;;;3.17;;
39654;SDS011;25336;59.944;11.010;2024-03-23T05:17:38;13.95;;;2.95;;
39654;SDS011;25336;59.944;11.010;2024-03-23T05:20:05;18.45;;;3.15;;
39654;SDS011;25336;59.944;11.010;2024-03-23T05:22:34;14.52;;;3.80;;
39654;SDS011;25336;59.944;11.010;2024-03-23T05:25:01;14.27;;;3.10;;
39654;SDS011;25336;59.944;11.010;2024-03-23T05:27:29;19.70;;;4.57;;
39654;SDS011;25336;59.944;11.010;2024-03-23T05:29:55;21.10;;;3.13;;
39654;SDS011;25336;59.944;11.010;2024-03-23T05:32:21;11.63;;;3.47;;
39654;SDS011;25336;59.944;11.010;2024-03-23T05:34:47;16.70;;;4.10;;
39654;SDS011;25336;59.944;11.010;2024-03-23T05:37:15;16.58;;;3.25;;
39654;SDS011;25336;59.944;11.010;2024-03-23T05:39:41;24.20;;;4.97;;
39654;SDS011;25336;59.944;11.010;2024-03-23T05:42:06;18.23;;;3.63;;
39654;SDS011;25336;59.944;11.010;2024-03-23T05:44:33;19.33;;;4.22;;
39654;SDS011;25336;59.944;11.010;2024-03-23T05:46:58;19.13;;;4.15;;
39654;SDS011;25336;59.944;11.010;2024-03-23T05:49:24;15.88;;;3.83;;
39654;SDS011;25336;59.944;11.010;2024-03-23T05:51:50;15.13;;;4.22;;
39654;SDS011;25336;59.944;11.010;2024-03-23T05:54:16;16.90;;;3.63;;
39654;SDS011;25336;59.944;11.010;2024-03-23T05:56:41;12.88;;;3.25;;
39654;SDS011;25336;59.944;11.010;2024-03-23T05:59:07;21.27;;;4.47;;
39654;SDS011;25336;59.944;11.010;2024-03-23T06:01:34;14.20;;;3.92;;
39654;SDS011;25336;59.944;11.010;2024-03-23T06:04:00;15.15;;;3.67;;
39654;SDS011;25336;59.944;11.010;2024-03-23T06:06:26;13.40;;;3.42;;
39654;SDS011;25336;59.944;11.010;2024-03-23T06:08:55;19.48;;;4.10;;
39654;SDS011;25336;59.944;11.010;2024-03-23T06:11:20;17.20;;;3.75;;
39654;SDS011;25336;59.944;11.010;2024-03-23T06:13:46;18.13;;;3.97;;
39654;SDS011;25336;59.944;11.010;2024-03-23T06:16:12;21.05;;;3.63;;
39654;SDS011;25336;59.944;11.010;2024-03-23T06:18:37;16.80;;;4.05;;
39654;SDS011;25336;59.944;11.010;2024-03-23T06:21:04;25.15;;;4.70;;
39654;SDS011;25336;59.944;11.010;2024-03-23T06:23:30;12.60;;;3.70;;
39654;SDS011;25336;59.944;11.010;2024-03-23T06:25:56;21.77;;;4.00;;
39654;SDS011;25336;59.944;11.010;2024-03-23T06:28:22;20.58;;;3.47;;
39654;SDS011;25336;59.944;11.010;2024-03-23T06:30:48;15.15;;;3.67;;
39654;SDS011;25336;59.944;11.010;2024-03-23T06:33:14;18.85;;;4.28;;
39654;SDS011;25336;59.944;11.010;2024-03-23T06:35:39;17.15;;;3.60;;
39654;SDS011;25336;59.944;11.010;2024-03-23T06:38:06;14.57;;;3.30;;
39654;SDS011;25336;59.944;11.010;2024-03-23T06:40:31;25.52;;;3.33;;
39654;SDS011;25336;59.944;11.010;2024-03-23T06:42:57;19.00;;;3.30;;
39654;SDS011;25336;59.944;11.010;2024-03-23T06:45:23;17.70;;;3.53;;
39654;SDS011;25336;59.944;11.010;2024-03-23T06:47:49;19.75;;;3.40;;
39654;SDS011;25336;59.944;11.010;2024-03-23T06:50:15;20.85;;;4.20;;
39654;SDS011;25336;59.944;11.010;2024-03-23T06:52:41;13.38;;;3.45;;
39654;SDS011;25336;59.944;11.010;2024-03-23T06:55:07;16.15;;;3.00;;
39654;SDS011;25336;59.944;11.010;2024-03-23T06:57:33;15.93;;;3.72;;
39654;SDS011;25336;59.944;11.010;2024-03-23T06:59:59;15.70;;;3.67;;
39654;SDS011;25336;59.944;11.010;2024-03-23T07:02:25;11.75;;;3.08;;
39654;SDS011;25336;59.944;11.010;2024-03-23T07:04:50;15.15;;;3.85;;
39654;SDS011;25336;59.944;11.010;2024-03-23T07:07:16;16.20;;;4.85;;
39654;SDS011;25336;59.944;11.010;2024-03-23T07:09:42;24.60;;;5.57;;
39654;SDS011;25336;59.944;11.010;2024-03-23T07:12:08;17.30;;;3.58;;
39654;SDS011;25336;59.944;11.010;2024-03-23T07:14:35;22.77;;;3.65;;
39654;SDS011;25336;59.944;11.010;2024-03-23T07:17:00;28.23;;;4.07;;
39654;SDS011;25336;59.944;11.010;2024-03-23T07:19:26;13.43;;;3.60;;
39654;SDS011;25336;59.944;11.010;2024-03-23T07:21:53;20.58;;;3.70;;
39654;SDS011;25336;59.944;11.010;2024-03-23T07:24:19;14.20;;;2.90;;
39654;SDS011;25336;59.944;11.010;2024-03-23T07:26:44;18.23;;;4.55;;
39654;SDS011;25336;59.944;11.010;2024-03-23T07:29:11;18.83;;;4.22;;
39654;SDS011;25336;59.944;11.010;2024-03-23T07:31:37;17.40;;;3.47;;
39654;SDS011;25336;59.944;11.010;2024-03-23T07:34:03;18.00;;;3.45;;
39654;SDS011;25336;59.944;11.010;2024-03-23T07:36:30;16.67;;;3.45;;
39654;SDS011;25336;59.944;11.010;2024-03-23T07:38:56;12.98;;;3.03;;
39654;SDS011;25336;59.944;11.010;2024-03-23T07:41:22;19.65;;;3.38;;
39654;SDS011;25336;59.944;11.010;2024-03-23T07:43:48;17.92;;;4.22;;
39654;SDS011;25336;59.944;11.010;2024-03-23T07:46:14;18.30;;;3.70;;
39654;SDS011;25336;59.944;11.010;2024-03-23T07:48:41;18.48;;;3.92;;
39654;SDS011;25336;59.944;11.010;2024-03-23T07:51:08;18.27;;;3.20;;
39654;SDS011;25336;59.944;11.010;2024-03-23T07:53:36;19.00;;;4.35;;
39654;SDS011;25336;59.944;11.010;2024-03-23T07:56:03;17.05;;;4.00;;
39654;SDS011;25336;59.944;11.010;2024-03-23T07:58:31;15.20;;;3.58;;
39654;SDS011;25336;59.944;11.010;2024-03-23T08:01:01;17.35;;;3.40;;
39654;SDS011;25336;59.944;11.010;2024-03-23T08:03:35;22.95;;;3.47;;
39654;SDS011;25336;59.944;11.010;2024-03-23T08:08:47;12.65;;;3.30;;
39654;SDS011;25336;59.944;11.010;2024-03-23T08:11:16;14.88;;;3.65;;
39654;SDS011;25336;59.944;11.010;2024-03-23T08:13:42;20.83;;;4.32;;
39654;SDS011;25336;59.944;11.010;2024-03-23T08:16:10;20.92;;;3.90;;
39654;SDS011;25336;59.944;11.010;2024-03-23T08:18:36;13.30;;;3.03;;
39654;SDS011;25336;59.944;11.010;2024-03-23T08:21:03;15.25;;;3.97;;
39654;SDS011;25336;59.944;11.010;2024-03-23T08:23:32;14.18;;;3.33;;
39654;SDS011;25336;59.944;11.010;2024-03-23T08:26:02;16.50;;;4.28;;
39654;SDS011;25336;59.944;11.010;2024-03-23T08:28:28;17.25;;;4.05;;
39654;SDS011;25336;59.944;11.010;2024-03-23T08:30:55;15.75;;;3.75;;
39654;SDS011;25336;59.944;11.010;2024-03-23T08:33:21;18.30;;;3.65;;
39654;SDS011;25336;59.944;11.010;2024-03-23T08:36:01;14.27;;;4.55;;
39654;SDS011;25336;59.944;11.010;2024-03-23T08:38:29;10.90;;;3.30;;
39654;SDS011;25336;59.944;11.010;2024-03-23T08:40:58;14.68;;;3.55;;
39654;SDS011;25336;59.944;11.010;2024-03-23T08:43:24;14.57;;;3.60;;
39654;SDS011;25336;59.944;11.010;2024-03-23T08:45:50;16.33;;;3.38;;
39654;SDS011;25336;59.944;11.010;2024-03-23T08:48:17;19.70;;;4.50;;
39654;SDS011;25336;59.944;11.010;2024-03-23T08:50:45;11.32;;;3.38;;
39654;SDS011;25336;59.944;11.010;2024-03-23T08:53:11;19.75;;;3.25;;
39654;SDS011;25336;59.944;11.010;2024-03-23T08:55:37;15.77;;;4.28;;
39654;SDS011;25336;59.944;11.010;2024-03-23T08:58:03;16.30;;;3.45;;
39654;SDS011;25336;59.944;11.010;2024-03-23T09:00:29;14.35;;;3.33;;
39654;SDS011;25336;59.944;11.010;2024-03-23T09:02:55;20.55;;;3.47;;
39654;SDS011;25336;59.944;11.010;2024-03-23T09:05:22;19.52;;;4.90;;
39654;SDS011;25336;59.944;11.010;2024-03-23T09:07:49;13.40;;;3.53;;
39654;SDS011;25336;59.944;11.010;2024-03-23T09:10:15;11.65;;;3.05;;
39654;SDS011;25336;59.944;11.010;2024-03-23T09:12:40;15.23;;;3.17;;
39654;SDS011;25336;59.944;11.010;2024-03-23T09:15:06;14.55;;;3.38;;
39654;SDS011;25336;59.944;11.010;2024-03-23T09:17:32;10.32;;;2.63;;
39654;SDS011;25336;59.944;11.010;2024-03-23T09:19:58;13.77;;;2.88;;
39654;SDS011;25336;59.944;11.010;2024-03-23T09:22:23;15.52;;;3.70;;
39654;SDS011;25336;59.944;11.010;2024-03-23T09:24:49;16.98;;;4.10;;
39654;SDS011;25336;59.944;11.010;2024-03-23T09:27:15;17.08;;;3.78;;
39654;SDS011;25336;59.944;11.010;2024-03-23T09:29:40;15.15;;;3.63;;
39654;SDS011;25336;59.944;11.010;2024-03-23T09:32:06;19.25;;;3.65;;
39654;SDS011;25336;59.944;11.010;2024-03-23T09:34:32;19.23;;;3.88;;
39654;SDS011;25336;59.944;11.010;2024-03-23T09:36:59;18.63;;;3.90;;
39654;SDS011;25336;59.944;11.010;2024-03-23T09:39:24;13.27;;;3.08;;
39654;SDS011;25336;59.944;11.010;2024-03-23T09:41:50;20.23;;;4.25;;
39654;SDS011;25336;59.944;11.010;2024-03-23T09:44:15;17.42;;;4.13;;
39654;SDS011;25336;59.944;11.010;2024-03-23T09:46:41;17.48;;;3.08;;
39654;SDS011;25336;59.944;11.010;2024-03-23T09:49:08;15.65;;;5.40;;
39654;SDS011;25336;59.944;11.010;2024-03-23T09:51:37;12.38;;;3.33;;
39654;SDS011;25336;59.944;11.010;2024-03-23T09:54:03;17.05;;;3.42;;
39654;SDS011;25336;59.944;11.010;2024-03-23T09:56:28;14.77;;;3.90;;
39654;SDS011;25336;59.944;11.010;2024-03-23T09:59:03;22.02;;;4.00;;
39654;SDS011;25336;59.944;11.010;2024-03-23T10:01:29;18.70;;;3.72;;
39654;SDS011;25336;59.944;11.010;2024-03-23T10:03:55;20.80;;;4.22;;
39654;SDS011;25336;59.944;11.010;2024-03-23T10:06:21;17.85;;;4.03;;
39654;SDS011;25336;59.944;11.010;2024-03-23T10:08:52;18.17;;;3.30;;
39654;SDS011;25336;59.944;11.010;2024-03-23T10:11:18;17.80;;;3.55;;
39654;SDS011;25336;59.944;11.010;2024-03-23T10:13:45;14.55;;;3.70;;
39654;SDS011;25336;59.944;11.010;2024-03-23T10:16:20;14.00;;;2.75;;
39654;SDS011;25336;59.944;11.010;2024-03-23T10:18:47;16.20;;;3.88;;
39654;SDS011;25336;59.944;11.010;2024-03-23T10:21:14;17.58;;;3.97;;
39654;SDS011;25336;59.944;11.010;2024-03-23T10:23:41;18.15;;;3.10;;
39654;SDS011;25336;59.944;11.010;2024-03-23T10:28:51;9.52;;;2.42;;
39654;SDS011;25336;59.944;11.010;2024-03-23T10:31:17;12.95;;;2.75;;
39654;SDS011;25336;59.944;11.010;2024-03-23T10:33:44;12.45;;;3.15;;
39654;SDS011;25336;59.944;11.010;2024-03-23T10:36:11;10.27;;;2.97;;
39654;SDS011;25336;59.944;11.010;2024-03-23T10:38:46;19.77;;;3.25;;
39654;SDS011;25336;59.944;11.010;2024-03-23T10:41:42;10.48;;;2.63;;
39654;SDS011;25336;59.944;11.010;2024-03-23T10:44:21;12.43;;;3.15;;
39654;SDS011;25336;59.944;11.010;2024-03-23T10:46:52;10.38;;;2.83;;
39654;SDS011;25336;59.944;11.010;2024-03-23T10:49:23;10.98;;;2.40;;
39654;SDS011;25336;59.944;11.010;2024-03-23T10:51:51;18.67;;;3.22;;
39654;SDS011;25336;59.944;11.010;2024-03-23T10:54:18;15.23;;;2.88;;
39654;SDS011;25336;59.944;11.010;2024-03-23T10:56:45;9.57;;;2.42;;
39654;SDS011;25336;59.944;11.010;2024-03-23T10:59:13;13.23;;;3.53;;
39654;SDS011;25336;59.944;11.010;2024-03-23T11:01:56;9.52;;;2.33;;
39654;SDS011;25336;59.944;11.010;2024-03-23T11:04:31;13.60;;;2.72;;
39654;SDS011;25336;59.944;11.010;2024-03-23T11:07:28;12.75;;;2.60;;
39654;SDS011;25336;59.944;11.010;2024-03-23T11:09:52;13.25;;;3.53;;
39654;SDS011;25336;59.944;11.010;2024-03-23T11:17:21;15.57;;;4.63;;
39654;SDS011;25336;59.944;11.010;2024-03-23T11:19:54;11.02;;;3.55;;
39654;SDS011;25336;59.944;11.010;2024-03-23T11:27:45;13.50;;;3.42;;
39654;SDS011;25336;59.944;11.010;2024-03-23T11:30:12;11.98;;;3.08;;
39654;SDS011;25336;59.944;11.010;2024-03-23T11:32:42;13.93;;;2.90;;
39654;SDS011;25336;59.944;11.010;2024-03-23T11:35:09;16.52;;;3.25;;
39654;SDS011;25336;59.944;11.010;2024-03-23T11:37:35;11.98;;;2.85;;
39654;SDS011;25336;59.944;11.010;2024-03-23T11:40:16;11.20;;;3.10;;
39654;SDS011;25336;59.944;11.010;2024-03-23T11:42:45;14.68;;;3.20;;
39654;SDS011;25336;59.944;11.010;2024-03-23T11:45:10;10.73;;;3.28;;
39654;SDS011;25336;59.944;11.010;2024-03-23T11:47:36;11.48;;;3.35;;
39654;SDS011;25336;59.944;11.010;2024-03-23T11:50:02;9.70;;;2.95;;
39654;SDS011;25336;59.944;11.010;2024-03-23T11:52:28;11.40;;;2.97;;
39654;SDS011;25336;59.944;11.010;2024-03-23T11:55:04;12.77;;;3.25;;
39654;SDS011;25336;59.944;11.010;2024-03-23T11:57:32;14.63;;;3.45;;
39654;SDS011;25336;59.944;11.010;2024-03-23T11:59:58;12.35;;;3.05;;
39654;SDS011;25336;59.944;11.010;2024-03-23T12:02:24;11.70;;;3.33;;
39654;SDS011;25336;59.944;11.010;2024-03-23T12:04:50;17.38;;;4.00;;
39654;SDS011;25336;59.944;11.010;2024-03-23T12:07:16;12.73;;;3.10;;
39654;SDS011;25336;59.944;11.010;2024-03-23T12:09:44;13.27;;;2.90;;
39654;SDS011;25336;59.944;11.010;2024-03-23T12:12:17;15.00;;;3.55;;
39654;SDS011;25336;59.944;11.010;2024-03-23T12:15:00;15.00;;;3.88;;
39654;SDS011;25336;59.944;11.010;2024-03-23T12:17:28;13.82;;;3.25;;
39654;SDS011;25336;59.944;11.010;2024-03-23T12:19:54;14.23;;;3.83;;
39654;SDS011;25336;59.944;11.010;2024-03-23T12:22:23;15.07;;;3.53;;
39654;SDS011;25336;59.944;11.010;2024-03-23T12:24:49;7.85;;;2.90;;
39654;SDS011;25336;59.944;11.010;2024-03-23T12:27:15;17.08;;;3.70;;
39654;SDS011;25336;59.944;11.010;2024-03-23T12:29:41;12.45;;;3.33;;
39654;SDS011;25336;59.944;11.010;2024-03-23T12:32:08;22.13;;;4.78;;
39654;SDS011;25336;59.944;11.010;2024-03-23T12:34:34;11.30;;;3.00;;
39654;SDS011;25336;59.944;11.010;2024-03-23T12:37:00;14.60;;;3.05;;
39654;SDS011;25336;59.944;11.010;2024-03-23T12:39:26;15.07;;;3.88;;
39654;SDS011;25336;59.944;11.010;2024-03-23T12:41:52;14.15;;;3.90;;
39654;SDS011;25336;59.944;11.010;2024-03-23T12:44:18;17.42;;;3.30;;
39654;SDS011;25336;59.944;11.010;2024-03-23T12:46:44;14.35;;;3.90;;
39654;SDS011;25336;59.944;11.010;2024-03-23T12:49:10;25.90;;;4.35;;
39654;SDS011;25336;59.944;11.010;2024-03-23T12:51:36;17.33;;;3.83;;
39654;SDS011;25336;59.944;11.010;2024-03-23T12:54:02;17.90;;;3.67;;
39654;SDS011;25336;59.944;11.010;2024-03-23T12:56:28;14.98;;;3.75;;
39654;SDS011;25336;59.944;11.010;2024-03-23T12:58:54;15.45;;;3.70;;
39654;SDS011;25336;59.944;11.010;2024-03-23T13:01:25;9.82;;;3.58;;
39654;SDS011;25336;59.944;11.010;2024-03-23T13:03:50;16.20;;;4.03;;
39654;SDS011;25336;59.944;11.010;2024-03-23T13:06:17;23.10;;;4.95;;
39654;SDS011;25336;59.944;11.010;2024-03-23T13:08:46;16.05;;;4.05;;
39654;SDS011;25336;59.944;11.010;2024-03-23T13:11:12;19.00;;;4.20;;
39654;SDS011;25336;59.944;11.010;2024-03-23T13:13:39;14.18;;;4.00;;
39654;SDS011;25336;59.944;11.010;2024-03-23T13:16:05;22.70;;;3.97;;
39654;SDS011;25336;59.944;11.010;2024-03-23T13:18:30;20.00;;;4.50;;
39654;SDS011;25336;59.944;11.010;2024-03-23T13:20:57;19.23;;;3.83;;
39654;SDS011;25336;59.944;11.010;2024-03-23T13:23:23;17.55;;;3.70;;
39654;SDS011;25336;59.944;11.010;2024-03-23T13:25:50;19.13;;;4.45;;
39654;SDS011;25336;59.944;11.010;2024-03-23T13:28:17;20.35;;;4.05;;
39654;SDS011;25336;59.944;11.010;2024-03-23T13:30:50;14.07;;;4.82;;
39654;SDS011;25336;59.944;11.010;2024-03-23T13:33:20;19.17;;;4.70;;
39654;SDS011;25336;59.944;11.010;2024-03-23T13:35:52;18.13;;;3.15;;
39654;SDS011;25336;59.944;11.010;2024-03-23T13:38:18;15.68;;;3.67;;
39654;SDS011;25336;59.944;11.010;2024-03-23T13:40:54;16.42;;;5.00;;
39654;SDS011;25336;59.944;11.010;2024-03-23T13:43:24;11.15;;;2.92;;
39654;SDS011;25336;59.944;11.010;2024-03-23T13:45:54;14.93;;;3.83;;
39654;SDS011;25336;59.944;11.010;2024-03-23T13:48:22;15.80;;;3.75;;
39654;SDS011;25336;59.944;11.010;2024-03-23T13:51:02;10.65;;;2.90;;
39654;SDS011;25336;59.944;11.010;2024-03-23T13:53:28;20.13;;;4.47;;
39654;SDS011;25336;59.944;11.010;2024-03-23T13:55:54;15.15;;;3.53;;
39654;SDS011;25336;59.944;11.010;2024-03-23T13:58:20;14.35;;;3.28;;
39654;SDS011;25336;59.944;11.010;2024-03-23T14:00:46;18.42;;;3.65;;
39654;SDS011;25336;59.944;11.010;2024-03-23T14:03:13;15.63;;;3.67;;
39654;SDS011;25336;59.944;11.010;2024-03-23T14:05:39;19.77;;;4.05;;
39654;SDS011;25336;59.944;11.010;2024-03-23T14:08:08;19.30;;;4.40;;
39654;SDS011;25336;59.944;11.010;2024-03-23T14:10:35;21.67;;;4.72;;
39654;SDS011;25336;59.944;11.010;2024-03-23T14:13:02;17.45;;;3.83;;
39654;SDS011;25336;59.944;11.010;2024-03-23T14:15:30;19.08;;;3.97;;
39654;SDS011;25336;59.944;11.010;2024-03-23T14:17:56;13.68;;;4.88;;
39654;SDS011;25336;59.944;11.010;2024-03-23T14:20:23;16.90;;;5.63;;
39654;SDS011;25336;59.944;11.010;2024-03-23T14:22:49;14.60;;;4.85;;
39654;SDS011;25336;59.944;11.010;2024-03-23T14:25:15;14.65;;;5.07;;
39654;SDS011;25336;59.944;11.010;2024-03-23T14:27:41;19.80;;;3.78;;
39654;SDS011;25336;59.944;11.010;2024-03-23T14:30:08;13.65;;;4.00;;
39654;SDS011;25336;59.944;11.010;2024-03-23T14:32:34;23.48;;;5.22;;
39654;SDS011;25336;59.944;11.010;2024-03-23T14:35:01;18.23;;;4.15;;
39654;SDS011;25336;59.944;11.010;2024-03-23T14:37:27;14.70;;;5.53;;
39654;SDS011;25336;59.944;11.010;2024-03-23T14:39:54;25.90;;;8.93;;
39654;SDS011;25336;59.944;11.010;2024-03-23T14:42:21;19.92;;;5.38;;
39654;SDS011;25336;59.944;11.010;2024-03-23T14:44:47;19.73;;;5.65;;
39654;SDS011;25336;59.944;11.010;2024-03-23T14:47:12;22.85;;;4.50;;
39654;SDS011;25336;59.944;11.010;2024-03-23T14:49:38;17.33;;;4.13;;
39654;SDS011;25336;59.944;11.010;2024-03-23T14:52:04;15.02;;;3.85;;
39654;SDS011;25336;59.944;11.010;2024-03-23T14:54:30;22.35;;;4.32;;
39654;SDS011;25336;59.944;11.010;2024-03-23T14:56:55;21.88;;;4.38;;
39654;SDS011;25336;59.944;11.010;2024-03-23T14:59:23;15.30;;;4.03;;
39654;SDS011;25336;59.944;11.010;2024-03-23T15:01:49;20.20;;;5.00;;
39654;SDS011;25336;59.944;11.010;2024-03-23T15:04:16;23.40;;;3.97;;
39654;SDS011;25336;59.944;11.010;2024-03-23T15:06:41;22.10;;;4.22;;
39654;SDS011;25336;59.944;11.010;2024-03-23T15:09:08;18.25;;;3.72;;
39654;SDS011;25336;59.944;11.010;2024-03-23T15:11:36;18.45;;;3.47;;
39654;SDS011;25336;59.944;11.010;2024-03-23T15:14:02;20.20;;;4.57;;
39654;SDS011;25336;59.944;11.010;2024-03-23T15:16:27;15.50;;;3.53;;
39654;SDS011;25336;59.944;11.010;2024-03-23T15:18:53;11.98;;;3.95;;
39654;SDS011;25336;59.944;11.010;2024-03-23T15:21:19;16.08;;;3.70;;
39654;SDS011;25336;59.944;11.010;2024-03-23T15:23:47;18.75;;;3.97;;
39654;SDS011;25336;59.944;11.010;2024-03-23T15:26:13;12.70;;;3.67;;
39654;SDS011;25336;59.944;11.010;2024-03-23T15:28:38;15.80;;;4.68;;
39654;SDS011;25336;59.944;11.010;2024-03-23T15:31:22;14.15;;;3.55;;
39654;SDS011;25336;59.944;11.010;2024-03-23T15:33:48;9.80;;;3.70;;